sensor_id;sensor_type;location;lat;lon;timestamp;temperature;humidity
5689;DHT22;2869;50.432;8.680;2023-10-08T00:01:53;15.10;99.90
5689;DHT22;2869;50.432;8.680;2023-10-08T00:04:21;15.10;99.90
5689;DHT22;2869;50.432;8.680;2023-10-08T00:06:48;15.20;99.90
5689;DHT22;2869;50.432;8.680;2023-10-08T00:09:18;15.30;99.90
5689;DHT22;2869;50.432;8.680;2023-10-08T00:11:47;15.40;99.90
5689;DHT22;2869;50.432;8.680;2023-10-08T00:14:19;15.50;99.90
5689;DHT22;2869;50.432;8.680;2023-10-08T00:16:47;15.70;99.90
5689;DHT22;2869;50.432;8.680;2023-10-08T00:19:15;15.80;99.90
5689;DHT22;2869;50.432;8.680;2023-10-08T00:21:43;16.00;99.90
5689;DHT22;2869;50.432;8.680;2023-10-08T00:24:14;16.20;99.90
5689;DHT22;2869;50.432;8.680;2023-10-08T00:26:41;16.20;99.90
5689;DHT22;2869;50.432;8.680;2023-10-08T00:29:09;16.30;99.90
5689;DHT22;2869;50.432;8.680;2023-10-08T00:31:43;16.30;99.90
5689;DHT22;2869;50.432;8.680;2023-10-08T00:34:11;16.40;99.90
5689;DHT22;2869;50.432;8.680;2023-10-08T00:36:38;16.50;99.90
5689;DHT22;2869;50.432;8.680;2023-10-08T00:39:07;16.60;99.90
5689;DHT22;2869;50.432;8.680;2023-10-08T00:41:40;16.70;99.90
5689;DHT22;2869;50.432;8.680;2023-10-08T00:44:10;16.80;99.90
5689;DHT22;2869;50.432;8.680;2023-10-08T00:46:39;16.90;99.90
5689;DHT22;2869;50.432;8.680;2023-10-08T00:49:13;17.00;99.90
5689;DHT22;2869;50.432;8.680;2023-10-08T00:51:51;17.10;99.90
5689;DHT22;2869;50.432;8.680;2023-10-08T00:54:26;17.10;99.90
5689;DHT22;2869;50.432;8.680;2023-10-08T00:56:59;17.10;99.90
5689;DHT22;2869;50.432;8.680;2023-10-08T00:59:31;17.10;99.90
5689;DHT22;2869;50.432;8.680;2023-10-08T01:02:06;17.10;99.90
5689;DHT22;2869;50.432;8.680;2023-10-08T01:04:40;17.10;99.90
5689;DHT22;2869;50.432;8.680;2023-10-08T01:07:10;17.10;99.90
5689;DHT22;2869;50.432;8.680;2023-10-08T01:09:41;17.10;99.90
5689;DHT22;2869;50.432;8.680;2023-10-08T01:12:10;17.00;99.90
5689;DHT22;2869;50.432;8.680;2023-10-08T01:14:42;17.00;99.90
5689;DHT22;2869;50.432;8.680;2023-10-08T01:17:09;16.90;99.90
5689;DHT22;2869;50.432;8.680;2023-10-08T01:19:39;16.80;99.90
5689;DHT22;2869;50.432;8.680;2023-10-08T01:22:09;16.70;99.90
5689;DHT22;2869;50.432;8.680;2023-10-08T01:24:42;16.60;99.90
5689;DHT22;2869;50.432;8.680;2023-10-08T01:27:09;16.60;99.90
5689;DHT22;2869;50.432;8.680;2023-10-08T01:29:37;16.50;99.90
5689;DHT22;2869;50.432;8.680;2023-10-08T01:32:04;16.50;99.90
5689;DHT22;2869;50.432;8.680;2023-10-08T01:34:35;16.50;99.90
5689;DHT22;2869;50.432;8.680;2023-10-08T01:37:02;16.50;99.90
5689;DHT22;2869;50.432;8.680;2023-10-08T01:39:36;16.50;99.90
5689;DHT22;2869;50.432;8.680;2023-10-08T01:42:03;16.50;99.90
5689;DHT22;2869;50.432;8.680;2023-10-08T01:44:31;16.50;99.90
5689;DHT22;2869;50.432;8.680;2023-10-08T01:46:59;16.40;99.90
5689;DHT22;2869;50.432;8.680;2023-10-08T01:49:26;16.30;99.90
5689;DHT22;2869;50.432;8.680;2023-10-08T01:51:58;16.30;99.90
5689;DHT22;2869;50.432;8.680;2023-10-08T01:54:31;16.30;99.90
5689;DHT22;2869;50.432;8.680;2023-10-08T01:57:02;16.30;99.90
5689;DHT22;2869;50.432;8.680;2023-10-08T01:59:31;16.40;99.90
5689;DHT22;2869;50.432;8.680;2023-10-08T02:01:58;16.40;99.90
5689;DHT22;2869;50.432;8.680;2023-10-08T02:04:24;16.50;99.90
5689;DHT22;2869;50.432;8.680;2023-10-08T02:06:51;16.40;99.90
5689;DHT22;2869;50.432;8.680;2023-10-08T02:09:17;16.50;99.90
5689;DHT22;2869;50.432;8.680;2023-10-08T02:11:51;16.50;99.90
5689;DHT22;2869;50.432;8.680;2023-10-08T02:14:20;16.50;99.90
5689;DHT22;2869;50.432;8.680;2023-10-08T02:16:48;16.50;99.90
5689;DHT22;2869;50.432;8.680;2023-10-08T02:19:15;16.50;99.90
5689;DHT22;2869;50.432;8.680;2023-10-08T02:21:44;16.60;99.90
5689;DHT22;2869;50.432;8.680;2023-10-08T02:24:12;16.70;99.90
5689;DHT22;2869;50.432;8.680;2023-10-08T02:26:39;16.70;99.90
5689;DHT22;2869;50.432;8.680;2023-10-08T02:29:09;16.70;99.90
5689;DHT22;2869;50.432;8.680;2023-10-08T02:31:39;16.80;99.90
5689;DHT22;2869;50.432;8.680;2023-10-08T02:34:06;16.80;99.90
5689;DHT22;2869;50.432;8.680;2023-10-08T02:36:34;16.80;99.90
5689;DHT22;2869;50.432;8.680;2023-10-08T02:39:03;16.80;99.90
5689;DHT22;2869;50.432;8.680;2023-10-08T02:41:39;16.90;99.90
5689;DHT22;2869;50.432;8.680;2023-10-08T02:44:06;16.90;99.90
5689;DHT22;2869;50.432;8.680;2023-10-08T02:46:39;16.90;99.90
5689;DHT22;2869;50.432;8.680;2023-10-08T02:49:06;16.90;99.90
5689;DHT22;2869;50.432;8.680;2023-10-08T02:51:36;16.90;99.90
5689;DHT22;2869;50.432;8.680;2023-10-08T02:54:03;16.90;99.90
5689;DHT22;2869;50.432;8.680;2023-10-08T02:56:31;16.90;99.90
5689;DHT22;2869;50.432;8.680;2023-10-08T02:58:58;16.80;99.90
5689;DHT22;2869;50.432;8.680;2023-10-08T03:01:25;16.80;99.90
5689;DHT22;2869;50.432;8.680;2023-10-08T03:03:53;16.70;99.90
5689;DHT22;2869;50.432;8.680;2023-10-08T03:06:29;16.60;99.90
5689;DHT22;2869;50.432;8.680;2023-10-08T03:08:57;16.50;99.90
5689;DHT22;2869;50.432;8.680;2023-10-08T03:11:29;16.40;99.90
5689;DHT22;2869;50.432;8.680;2023-10-08T03:13:56;16.30;99.90
5689;DHT22;2869;50.432;8.680;2023-10-08T03:16:24;16.30;99.90
5689;DHT22;2869;50.432;8.680;2023-10-08T03:19:00;16.30;99.90
5689;DHT22;2869;50.432;8.680;2023-10-08T03:21:31;16.20;99.90
5689;DHT22;2869;50.432;8.680;2023-10-08T03:24:14;16.10;99.90
5689;DHT22;2869;50.432;8.680;2023-10-08T03:26:55;16.10;99.90
5689;DHT22;2869;50.432;8.680;2023-10-08T03:29:32;16.00;99.90
5689;DHT22;2869;50.432;8.680;2023-10-08T03:31:58;16.00;99.90
5689;DHT22;2869;50.432;8.680;2023-10-08T03:34:32;15.90;99.90
5689;DHT22;2869;50.432;8.680;2023-10-08T03:37:01;15.90;99.90
5689;DHT22;2869;50.432;8.680;2023-10-08T03:39:32;15.90;99.90
5689;DHT22;2869;50.432;8.680;2023-10-08T03:42:19;15.80;99.90
5689;DHT22;2869;50.432;8.680;2023-10-08T03:44:46;15.90;99.90
5689;DHT22;2869;50.432;8.680;2023-10-08T03:47:16;15.90;99.90
5689;DHT22;2869;50.432;8.680;2023-10-08T03:49:46;15.80;99.90
5689;DHT22;2869;50.432;8.680;2023-10-08T03:52:16;15.80;99.90
5689;DHT22;2869;50.432;8.680;2023-10-08T03:54:43;15.80;99.90
5689;DHT22;2869;50.432;8.680;2023-10-08T03:57:14;15.70;99.90
5689;DHT22;2869;50.432;8.680;2023-10-08T03:59:45;15.70;99.90
5689;DHT22;2869;50.432;8.680;2023-10-08T04:02:14;15.60;99.90
5689;DHT22;2869;50.432;8.680;2023-10-08T04:04:49;15.50;99.90
5689;DHT22;2869;50.432;8.680;2023-10-08T04:07:17;15.40;99.90
5689;DHT22;2869;50.432;8.680;2023-10-08T04:10:05;15.30;99.90
5689;DHT22;2869;50.432;8.680;2023-10-08T04:13:00;15.20;99.90
5689;DHT22;2869;50.432;8.680;2023-10-08T04:15:26;15.10;99.90
5689;DHT22;2869;50.432;8.680;2023-10-08T04:17:53;15.00;99.90
5689;DHT22;2869;50.432;8.680;2023-10-08T04:20:21;15.00;99.90
5689;DHT22;2869;50.432;8.680;2023-10-08T04:22:59;15.00;99.90
5689;DHT22;2869;50.432;8.680;2023-10-08T04:25:26;15.00;99.90
5689;DHT22;2869;50.432;8.680;2023-10-08T04:27:53;15.00;99.90
5689;DHT22;2869;50.432;8.680;2023-10-08T04:30:20;15.00;99.90
5689;DHT22;2869;50.432;8.680;2023-10-08T04:32:48;15.00;99.90
5689;DHT22;2869;50.432;8.680;2023-10-08T04:35:18;15.00;99.90
5689;DHT22;2869;50.432;8.680;2023-10-08T04:37:52;15.00;99.90
5689;DHT22;2869;50.432;8.680;2023-10-08T04:40:19;15.00;99.90
5689;DHT22;2869;50.432;8.680;2023-10-08T04:42:49;15.20;99.90
5689;DHT22;2869;50.432;8.680;2023-10-08T04:45:16;15.30;99.90
5689;DHT22;2869;50.432;8.680;2023-10-08T04:47:45;15.40;99.90
5689;DHT22;2869;50.432;8.680;2023-10-08T04:50:15;15.50;99.90
5689;DHT22;2869;50.432;8.680;2023-10-08T04:52:43;15.50;99.90
5689;DHT22;2869;50.432;8.680;2023-10-08T04:55:25;15.60;99.90
5689;DHT22;2869;50.432;8.680;2023-10-08T04:57:54;15.70;99.90
5689;DHT22;2869;50.432;8.680;2023-10-08T05:00:21;15.70;99.90
5689;DHT22;2869;50.432;8.680;2023-10-08T05:03:11;15.70;99.90
5689;DHT22;2869;50.432;8.680;2023-10-08T05:05:40;15.70;99.90
5689;DHT22;2869;50.432;8.680;2023-10-08T05:08:27;15.80;99.90
5689;DHT22;2869;50.432;8.680;2023-10-08T05:11:00;15.70;99.90
5689;DHT22;2869;50.432;8.680;2023-10-08T05:13:50;15.70;99.90
5689;DHT22;2869;50.432;8.680;2023-10-08T05:16:31;15.60;99.90
5689;DHT22;2869;50.432;8.680;2023-10-08T05:19:08;15.50;99.90
5689;DHT22;2869;50.432;8.680;2023-10-08T05:22:03;15.40;99.90
5689;DHT22;2869;50.432;8.680;2023-10-08T05:24:44;15.40;99.90
5689;DHT22;2869;50.432;8.680;2023-10-08T05:27:32;15.30;99.90
5689;DHT22;2869;50.432;8.680;2023-10-08T05:30:23;15.20;99.90
5689;DHT22;2869;50.432;8.680;2023-10-08T05:33:04;15.10;99.90
5689;DHT22;2869;50.432;8.680;2023-10-08T05:35:39;15.10;99.90
5689;DHT22;2869;50.432;8.680;2023-10-08T05:38:17;15.10;99.90
5689;DHT22;2869;50.432;8.680;2023-10-08T05:41:04;15.00;99.90
5689;DHT22;2869;50.432;8.680;2023-10-08T05:43:43;15.10;99.90
5689;DHT22;2869;50.432;8.680;2023-10-08T05:46:39;15.10;99.90
5689;DHT22;2869;50.432;8.680;2023-10-08T05:49:12;15.10;99.90
5689;DHT22;2869;50.432;8.680;2023-10-08T05:51:51;15.10;99.90
5689;DHT22;2869;50.432;8.680;2023-10-08T05:54:32;15.10;99.90
5689;DHT22;2869;50.432;8.680;2023-10-08T05:57:04;15.10;99.90
5689;DHT22;2869;50.432;8.680;2023-10-08T05:59:34;15.10;99.90
5689;DHT22;2869;50.432;8.680;2023-10-08T06:02:18;15.10;99.90
5689;DHT22;2869;50.432;8.680;2023-10-08T06:04:53;15.20;99.90
5689;DHT22;2869;50.432;8.680;2023-10-08T06:07:36;15.30;99.90
5689;DHT22;2869;50.432;8.680;2023-10-08T06:10:14;15.40;99.90
5689;DHT22;2869;50.432;8.680;2023-10-08T06:13:09;15.40;99.90
5689;DHT22;2869;50.432;8.680;2023-10-08T06:15:37;15.50;99.90
5689;DHT22;2869;50.432;8.680;2023-10-08T06:18:10;15.50;99.90
5689;DHT22;2869;50.432;8.680;2023-10-08T06:20:36;15.50;99.90
5689;DHT22;2869;50.432;8.680;2023-10-08T06:23:06;15.60;99.90
5689;DHT22;2869;50.432;8.680;2023-10-08T06:25:33;15.60;99.90
5689;DHT22;2869;50.432;8.680;2023-10-08T06:28:11;15.70;99.90
5689;DHT22;2869;50.432;8.680;2023-10-08T06:30:40;15.70;99.90
5689;DHT22;2869;50.432;8.680;2023-10-08T06:33:07;15.80;99.90
5689;DHT22;2869;50.432;8.680;2023-10-08T06:35:34;15.80;99.90
5689;DHT22;2869;50.432;8.680;2023-10-08T06:38:01;15.90;99.90
5689;DHT22;2869;50.432;8.680;2023-10-08T06:40:33;15.90;99.90
5689;DHT22;2869;50.432;8.680;2023-10-08T06:43:09;16.00;99.90
5689;DHT22;2869;50.432;8.680;2023-10-08T06:45:44;15.90;99.90
5689;DHT22;2869;50.432;8.680;2023-10-08T06:48:13;16.10;99.90
5689;DHT22;2869;50.432;8.680;2023-10-08T06:50:46;16.10;99.90
5689;DHT22;2869;50.432;8.680;2023-10-08T06:53:13;16.20;99.90
5689;DHT22;2869;50.432;8.680;2023-10-08T06:55:40;16.20;99.90
5689;DHT22;2869;50.432;8.680;2023-10-08T06:58:07;16.30;99.90
5689;DHT22;2869;50.432;8.680;2023-10-08T07:00:35;16.40;99.90
5689;DHT22;2869;50.432;8.680;2023-10-08T07:03:09;16.50;99.90
5689;DHT22;2869;50.432;8.680;2023-10-08T07:05:40;16.50;99.90
5689;DHT22;2869;50.432;8.680;2023-10-08T07:08:08;16.50;99.90
5689;DHT22;2869;50.432;8.680;2023-10-08T07:10:35;16.50;99.90
5689;DHT22;2869;50.432;8.680;2023-10-08T07:13:01;16.50;99.90
5689;DHT22;2869;50.432;8.680;2023-10-08T07:15:30;16.60;99.90
5689;DHT22;2869;50.432;8.680;2023-10-08T07:17:57;16.60;99.90
5689;DHT22;2869;50.432;8.680;2023-10-08T07:20:35;16.90;99.90
5689;DHT22;2869;50.432;8.680;2023-10-08T07:23:05;17.20;99.90
5689;DHT22;2869;50.432;8.680;2023-10-08T07:25:40;17.30;99.90
5689;DHT22;2869;50.432;8.680;2023-10-08T07:28:07;17.30;99.90
5689;DHT22;2869;50.432;8.680;2023-10-08T07:30:37;17.30;99.90
5689;DHT22;2869;50.432;8.680;2023-10-08T07:33:09;17.20;99.90
5689;DHT22;2869;50.432;8.680;2023-10-08T07:35:44;17.10;99.90
5689;DHT22;2869;50.432;8.680;2023-10-08T07:38:18;17.00;99.90
5689;DHT22;2869;50.432;8.680;2023-10-08T07:40:44;17.10;99.90
5689;DHT22;2869;50.432;8.680;2023-10-08T07:43:11;17.10;99.90
5689;DHT22;2869;50.432;8.680;2023-10-08T07:45:38;17.10;99.90
5689;DHT22;2869;50.432;8.680;2023-10-08T07:48:05;17.00;99.90
5689;DHT22;2869;50.432;8.680;2023-10-08T07:50:35;17.10;99.90
5689;DHT22;2869;50.432;8.680;2023-10-08T07:53:04;17.10;99.90
5689;DHT22;2869;50.432;8.680;2023-10-08T07:55:31;17.10;99.90
5689;DHT22;2869;50.432;8.680;2023-10-08T07:57:58;17.10;99.90
5689;DHT22;2869;50.432;8.680;2023-10-08T08:00:25;17.20;99.90
5689;DHT22;2869;50.432;8.680;2023-10-08T08:02:56;17.30;99.90
5689;DHT22;2869;50.432;8.680;2023-10-08T08:05:23;17.30;99.90
5689;DHT22;2869;50.432;8.680;2023-10-08T08:07:50;17.40;99.90
5689;DHT22;2869;50.432;8.680;2023-10-08T08:10:19;17.40;99.90
5689;DHT22;2869;50.432;8.680;2023-10-08T08:12:48;17.40;99.90
5689;DHT22;2869;50.432;8.680;2023-10-08T08:15:16;17.50;99.90
5689;DHT22;2869;50.432;8.680;2023-10-08T08:17:44;17.50;99.90
5689;DHT22;2869;50.432;8.680;2023-10-08T08:20:13;17.50;99.90
5689;DHT22;2869;50.432;8.680;2023-10-08T08:22:48;17.60;99.90
5689;DHT22;2869;50.432;8.680;2023-10-08T08:25:20;17.60;99.90
5689;DHT22;2869;50.432;8.680;2023-10-08T08:27:59;17.60;99.90
5689;DHT22;2869;50.432;8.680;2023-10-08T08:30:26;17.70;99.90
5689;DHT22;2869;50.432;8.680;2023-10-08T08:32:53;17.70;99.90
5689;DHT22;2869;50.432;8.680;2023-10-08T08:35:21;17.80;99.90
5689;DHT22;2869;50.432;8.680;2023-10-08T08:37:49;17.80;99.90
5689;DHT22;2869;50.432;8.680;2023-10-08T08:40:18;17.80;99.90
5689;DHT22;2869;50.432;8.680;2023-10-08T08:42:47;17.80;99.90
5689;DHT22;2869;50.432;8.680;2023-10-08T08:45:19;17.80;99.90
5689;DHT22;2869;50.432;8.680;2023-10-08T08:47:47;17.80;99.90
5689;DHT22;2869;50.432;8.680;2023-10-08T08:50:14;17.80;99.90
5689;DHT22;2869;50.432;8.680;2023-10-08T08:52:41;17.70;99.90
5689;DHT22;2869;50.432;8.680;2023-10-08T08:55:08;17.70;99.90
5689;DHT22;2869;50.432;8.680;2023-10-08T08:57:41;17.70;99.90
5689;DHT22;2869;50.432;8.680;2023-10-08T09:00:11;17.80;99.90
5689;DHT22;2869;50.432;8.680;2023-10-08T09:02:40;17.80;99.90
5689;DHT22;2869;50.432;8.680;2023-10-08T09:05:07;17.90;99.90
5689;DHT22;2869;50.432;8.680;2023-10-08T09:07:54;17.90;99.90
5689;DHT22;2869;50.432;8.680;2023-10-08T09:10:22;17.90;99.90
5689;DHT22;2869;50.432;8.680;2023-10-08T09:12:52;18.00;99.90
5689;DHT22;2869;50.432;8.680;2023-10-08T09:15:21;18.00;99.90
5689;DHT22;2869;50.432;8.680;2023-10-08T09:17:48;18.10;99.90
5689;DHT22;2869;50.432;8.680;2023-10-08T09:20:15;18.10;99.90
5689;DHT22;2869;50.432;8.680;2023-10-08T09:22:42;18.20;99.90
5689;DHT22;2869;50.432;8.680;2023-10-08T09:25:09;18.30;99.90
5689;DHT22;2869;50.432;8.680;2023-10-08T09:27:39;18.40;99.90
5689;DHT22;2869;50.432;8.680;2023-10-08T09:30:12;18.50;99.90
5689;DHT22;2869;50.432;8.680;2023-10-08T09:32:47;18.60;99.90
5689;DHT22;2869;50.432;8.680;2023-10-08T09:35:15;18.60;99.90
5689;DHT22;2869;50.432;8.680;2023-10-08T09:37:43;18.70;99.90
5689;DHT22;2869;50.432;8.680;2023-10-08T09:40:11;18.70;99.90
5689;DHT22;2869;50.432;8.680;2023-10-08T09:42:44;18.70;99.90
5689;DHT22;2869;50.432;8.680;2023-10-08T09:45:13;18.70;99.90
5689;DHT22;2869;50.432;8.680;2023-10-08T09:47:45;18.70;99.90
5689;DHT22;2869;50.432;8.680;2023-10-08T09:50:22;18.80;99.90
5689;DHT22;2869;50.432;8.680;2023-10-08T09:52:59;18.90;99.90
5689;DHT22;2869;50.432;8.680;2023-10-08T09:55:27;19.00;99.90
5689;DHT22;2869;50.432;8.680;2023-10-08T09:57:54;19.00;99.90
5689;DHT22;2869;50.432;8.680;2023-10-08T10:00:22;19.10;99.90
5689;DHT22;2869;50.432;8.680;2023-10-08T10:02:57;19.40;99.90
5689;DHT22;2869;50.432;8.680;2023-10-08T10:05:29;19.70;99.90
5689;DHT22;2869;50.432;8.680;2023-10-08T10:07:56;20.10;99.90
5689;DHT22;2869;50.432;8.680;2023-10-08T10:10:26;20.40;99.90
5689;DHT22;2869;50.432;8.680;2023-10-08T10:15:23;20.60;99.90
5689;DHT22;2869;50.432;8.680;2023-10-08T10:17:50;20.90;99.90
5689;DHT22;2869;50.432;8.680;2023-10-08T10:20:17;21.00;99.90
5689;DHT22;2869;50.432;8.680;2023-10-08T10:22:48;21.10;99.90
5689;DHT22;2869;50.432;8.680;2023-10-08T10:25:16;21.10;99.90
5689;DHT22;2869;50.432;8.680;2023-10-08T10:30:43;21.30;99.90
5689;DHT22;2869;50.432;8.680;2023-10-08T10:33:10;21.40;99.90
5689;DHT22;2869;50.432;8.680;2023-10-08T10:35:37;21.40;99.90
5689;DHT22;2869;50.432;8.680;2023-10-08T10:38:07;21.50;99.90
5689;DHT22;2869;50.432;8.680;2023-10-08T10:40:33;21.50;99.90
5689;DHT22;2869;50.432;8.680;2023-10-08T10:43:05;21.50;99.90
5689;DHT22;2869;50.432;8.680;2023-10-08T10:45:34;21.50;99.90
5689;DHT22;2869;50.432;8.680;2023-10-08T10:48:08;21.60;99.90
5689;DHT22;2869;50.432;8.680;2023-10-08T10:50:39;21.60;99.90
5689;DHT22;2869;50.432;8.680;2023-10-08T10:53:17;21.70;99.90
5689;DHT22;2869;50.432;8.680;2023-10-08T10:55:44;21.70;99.90
5689;DHT22;2869;50.432;8.680;2023-10-08T10:58:24;21.80;99.90
5689;DHT22;2869;50.432;8.680;2023-10-08T11:00:50;21.80;99.90
5689;DHT22;2869;50.432;8.680;2023-10-08T11:03:25;21.80;99.90
5689;DHT22;2869;50.432;8.680;2023-10-08T11:05:56;21.70;99.90
5689;DHT22;2869;50.432;8.680;2023-10-08T11:08:26;21.80;99.90
5689;DHT22;2869;50.432;8.680;2023-10-08T11:11:00;21.90;99.90
5689;DHT22;2869;50.432;8.680;2023-10-08T11:13:32;21.90;99.90
5689;DHT22;2869;50.432;8.680;2023-10-08T11:16:03;21.70;99.90
5689;DHT22;2869;50.432;8.680;2023-10-08T11:18:31;21.70;99.90
5689;DHT22;2869;50.432;8.680;2023-10-08T11:21:06;21.60;99.90
5689;DHT22;2869;50.432;8.680;2023-10-08T11:23:44;21.40;99.90
5689;DHT22;2869;50.432;8.680;2023-10-08T11:26:12;21.30;99.90
5689;DHT22;2869;50.432;8.680;2023-10-08T11:28:42;21.20;99.90
5689;DHT22;2869;50.432;8.680;2023-10-08T11:31:11;21.20;99.90
5689;DHT22;2869;50.432;8.680;2023-10-08T11:33:40;21.30;99.90
5689;DHT22;2869;50.432;8.680;2023-10-08T11:36:08;21.40;99.90
5689;DHT22;2869;50.432;8.680;2023-10-08T11:38:45;21.50;99.90
5689;DHT22;2869;50.432;8.680;2023-10-08T11:41:16;21.60;99.90
5689;DHT22;2869;50.432;8.680;2023-10-08T11:43:54;21.60;99.90
5689;DHT22;2869;50.432;8.680;2023-10-08T11:46:23;21.40;99.90
5689;DHT22;2869;50.432;8.680;2023-10-08T11:48:53;20.90;99.90
5689;DHT22;2869;50.432;8.680;2023-10-08T11:51:23;20.60;99.90
5689;DHT22;2869;50.432;8.680;2023-10-08T11:53:51;20.30;99.90
5689;DHT22;2869;50.432;8.680;2023-10-08T11:56:19;20.00;99.90
5689;DHT22;2869;50.432;8.680;2023-10-08T11:58:48;19.80;99.90
5689;DHT22;2869;50.432;8.680;2023-10-08T12:01:17;19.50;99.90
5689;DHT22;2869;50.432;8.680;2023-10-08T12:03:44;19.40;99.90
5689;DHT22;2869;50.432;8.680;2023-10-08T12:06:11;19.30;99.90
5689;DHT22;2869;50.432;8.680;2023-10-08T12:08:41;19.20;99.90
5689;DHT22;2869;50.432;8.680;2023-10-08T12:11:14;19.00;99.90
5689;DHT22;2869;50.432;8.680;2023-10-08T12:13:42;19.00;99.90
5689;DHT22;2869;50.432;8.680;2023-10-08T12:16:12;19.00;99.90
5689;DHT22;2869;50.432;8.680;2023-10-08T12:18:44;18.90;99.90
5689;DHT22;2869;50.432;8.680;2023-10-08T12:21:14;19.00;99.90
5689;DHT22;2869;50.432;8.680;2023-10-08T12:23:41;19.10;99.90
5689;DHT22;2869;50.432;8.680;2023-10-08T12:26:12;19.30;99.90
5689;DHT22;2869;50.432;8.680;2023-10-08T12:28:41;19.30;99.90
5689;DHT22;2869;50.432;8.680;2023-10-08T12:31:09;19.40;99.90
5689;DHT22;2869;50.432;8.680;2023-10-08T12:33:36;19.30;99.90
5689;DHT22;2869;50.432;8.680;2023-10-08T12:36:03;19.30;99.90
5689;DHT22;2869;50.432;8.680;2023-10-08T12:38:36;19.40;99.90
5689;DHT22;2869;50.432;8.680;2023-10-08T12:41:03;19.50;99.90
5689;DHT22;2869;50.432;8.680;2023-10-08T12:43:39;19.40;99.90
5689;DHT22;2869;50.432;8.680;2023-10-08T12:46:08;19.20;99.90
5689;DHT22;2869;50.432;8.680;2023-10-08T12:48:37;19.30;99.90
5689;DHT22;2869;50.432;8.680;2023-10-08T12:51:03;19.10;99.90
5689;DHT22;2869;50.432;8.680;2023-10-08T12:53:32;19.00;99.90
5689;DHT22;2869;50.432;8.680;2023-10-08T12:56:00;19.00;99.90
5689;DHT22;2869;50.432;8.680;2023-10-08T12:58:31;19.00;99.90
5689;DHT22;2869;50.432;8.680;2023-10-08T13:01:01;19.00;99.90
5689;DHT22;2869;50.432;8.680;2023-10-08T13:03:29;19.00;99.90
5689;DHT22;2869;50.432;8.680;2023-10-08T13:05:57;19.10;99.90
5689;DHT22;2869;50.432;8.680;2023-10-08T13:08:29;19.20;99.90
5689;DHT22;2869;50.432;8.680;2023-10-08T13:10:56;19.30;99.90
5689;DHT22;2869;50.432;8.680;2023-10-08T13:13:26;19.30;99.90
5689;DHT22;2869;50.432;8.680;2023-10-08T13:15:53;19.50;99.90
5689;DHT22;2869;50.432;8.680;2023-10-08T13:18:23;19.50;99.90
5689;DHT22;2869;50.432;8.680;2023-10-08T13:20:50;19.50;99.90
5689;DHT22;2869;50.432;8.680;2023-10-08T13:23:17;19.30;99.90
5689;DHT22;2869;50.432;8.680;2023-10-08T13:25:44;19.20;99.90
5689;DHT22;2869;50.432;8.680;2023-10-08T13:28:12;19.10;99.90
5689;DHT22;2869;50.432;8.680;2023-10-08T13:30:39;19.00;99.90
5689;DHT22;2869;50.432;8.680;2023-10-08T13:33:06;18.90;99.90
5689;DHT22;2869;50.432;8.680;2023-10-08T13:35:36;18.90;99.90
5689;DHT22;2869;50.432;8.680;2023-10-08T13:38:03;18.90;99.90
5689;DHT22;2869;50.432;8.680;2023-10-08T13:40:35;19.00;99.90
5689;DHT22;2869;50.432;8.680;2023-10-08T13:43:05;19.00;99.90
5689;DHT22;2869;50.432;8.680;2023-10-08T13:45:32;19.00;99.90
5689;DHT22;2869;50.432;8.680;2023-10-08T13:48:03;19.00;99.90
5689;DHT22;2869;50.432;8.680;2023-10-08T13:50:30;19.10;99.90
5689;DHT22;2869;50.432;8.680;2023-10-08T13:52:58;19.20;99.90
5689;DHT22;2869;50.432;8.680;2023-10-08T13:55:27;19.20;99.90
5689;DHT22;2869;50.432;8.680;2023-10-08T13:57:55;19.20;99.90
5689;DHT22;2869;50.432;8.680;2023-10-08T14:00:23;19.30;99.90
5689;DHT22;2869;50.432;8.680;2023-10-08T14:02:52;19.40;99.90
5689;DHT22;2869;50.432;8.680;2023-10-08T14:05:18;19.50;99.90
5689;DHT22;2869;50.432;8.680;2023-10-08T14:07:49;19.40;99.90
5689;DHT22;2869;50.432;8.680;2023-10-08T14:10:18;19.50;99.90
5689;DHT22;2869;50.432;8.680;2023-10-08T14:12:45;19.40;99.90
5689;DHT22;2869;50.432;8.680;2023-10-08T14:15:15;19.10;99.90
5689;DHT22;2869;50.432;8.680;2023-10-08T14:17:42;19.00;99.90
5689;DHT22;2869;50.432;8.680;2023-10-08T14:20:10;19.00;99.90
5689;DHT22;2869;50.432;8.680;2023-10-08T14:22:39;18.80;99.90
5689;DHT22;2869;50.432;8.680;2023-10-08T14:25:08;18.70;99.90
5689;DHT22;2869;50.432;8.680;2023-10-08T14:27:38;18.50;99.90
5689;DHT22;2869;50.432;8.680;2023-10-08T14:30:07;18.30;99.90
5689;DHT22;2869;50.432;8.680;2023-10-08T14:32:41;18.20;99.90
5689;DHT22;2869;50.432;8.680;2023-10-08T14:35:11;18.10;99.90
5689;DHT22;2869;50.432;8.680;2023-10-08T14:37:55;17.90;99.90
5689;DHT22;2869;50.432;8.680;2023-10-08T14:40:39;17.80;99.90
5689;DHT22;2869;50.432;8.680;2023-10-08T14:43:25;17.70;99.90
5689;DHT22;2869;50.432;8.680;2023-10-08T14:45:54;17.60;99.90
5689;DHT22;2869;50.432;8.680;2023-10-08T14:48:21;17.60;99.90
5689;DHT22;2869;50.432;8.680;2023-10-08T14:50:49;17.60;99.90
5689;DHT22;2869;50.432;8.680;2023-10-08T14:53:16;17.60;99.90
5689;DHT22;2869;50.432;8.680;2023-10-08T14:55:43;17.40;99.90
5689;DHT22;2869;50.432;8.680;2023-10-08T14:58:10;17.40;99.90
5689;DHT22;2869;50.432;8.680;2023-10-08T15:00:39;17.30;99.90
5689;DHT22;2869;50.432;8.680;2023-10-08T15:03:07;17.20;99.90
5689;DHT22;2869;50.432;8.680;2023-10-08T15:05:34;17.20;99.90
5689;DHT22;2869;50.432;8.680;2023-10-08T15:08:02;17.20;99.90
5689;DHT22;2869;50.432;8.680;2023-10-08T15:10:35;17.10;99.90
5689;DHT22;2869;50.432;8.680;2023-10-08T15:13:02;17.10;99.90
5689;DHT22;2869;50.432;8.680;2023-10-08T15:15:28;17.00;99.90
5689;DHT22;2869;50.432;8.680;2023-10-08T15:18:01;16.90;99.90
5689;DHT22;2869;50.432;8.680;2023-10-08T15:20:28;17.00;99.90
5689;DHT22;2869;50.432;8.680;2023-10-08T15:22:57;16.90;99.90
5689;DHT22;2869;50.432;8.680;2023-10-08T15:25:24;16.90;99.90
5689;DHT22;2869;50.432;8.680;2023-10-08T15:27:50;16.90;99.90
5689;DHT22;2869;50.432;8.680;2023-10-08T15:30:18;16.80;99.90
5689;DHT22;2869;50.432;8.680;2023-10-08T15:32:46;16.80;99.90
5689;DHT22;2869;50.432;8.680;2023-10-08T15:35:17;16.80;99.90
5689;DHT22;2869;50.432;8.680;2023-10-08T15:37:45;16.80;99.90
5689;DHT22;2869;50.432;8.680;2023-10-08T15:40:12;16.90;99.90
5689;DHT22;2869;50.432;8.680;2023-10-08T15:42:47;16.80;99.90
5689;DHT22;2869;50.432;8.680;2023-10-08T15:45:15;16.90;99.90
5689;DHT22;2869;50.432;8.680;2023-10-08T15:47:42;16.90;99.90
5689;DHT22;2869;50.432;8.680;2023-10-08T15:50:09;16.90;99.90
5689;DHT22;2869;50.432;8.680;2023-10-08T15:52:37;16.80;99.90
5689;DHT22;2869;50.432;8.680;2023-10-08T15:55:06;16.90;99.90
5689;DHT22;2869;50.432;8.680;2023-10-08T15:57:33;16.90;99.90
5689;DHT22;2869;50.432;8.680;2023-10-08T16:00:00;16.80;99.90
5689;DHT22;2869;50.432;8.680;2023-10-08T16:02:26;16.80;99.90
5689;DHT22;2869;50.432;8.680;2023-10-08T16:04:53;16.70;99.90
5689;DHT22;2869;50.432;8.680;2023-10-08T16:07:20;16.70;99.90
5689;DHT22;2869;50.432;8.680;2023-10-08T16:09:49;16.60;99.90
5689;DHT22;2869;50.432;8.680;2023-10-08T16:12:16;16.50;99.90
5689;DHT22;2869;50.432;8.680;2023-10-08T16:14:43;16.50;99.90
5689;DHT22;2869;50.432;8.680;2023-10-08T16:17:10;16.50;99.90
5689;DHT22;2869;50.432;8.680;2023-10-08T16:19:38;16.50;99.90
5689;DHT22;2869;50.432;8.680;2023-10-08T16:22:06;16.40;99.90
5689;DHT22;2869;50.432;8.680;2023-10-08T16:24:34;16.40;99.90
5689;DHT22;2869;50.432;8.680;2023-10-08T16:27:03;16.30;99.90
5689;DHT22;2869;50.432;8.680;2023-10-08T16:29:30;16.20;99.90